createdAt,value
2022-11-29T00:04:18.693Z,65.03
2022-11-29T00:06:49.510Z,65.07
2022-11-29T00:12:15.412Z,64.80
2022-11-29T00:14:43.467Z,65.07
2022-11-29T00:17:11.037Z,65.55
2022-11-29T00:19:38.634Z,64.75
2022-11-29T00:22:06.012Z,64.96
2022-11-29T00:24:33.986Z,64.43
2022-11-29T00:27:02.446Z,64.36
2022-11-29T00:29:30.766Z,64.75
2022-11-29T00:31:58.333Z,64.28
2022-11-29T00:34:25.690Z,64.08
2022-11-29T00:36:52.952Z,64.05
2022-11-29T00:39:20.342Z,64.37
2022-11-29T00:41:47.785Z,63.21
2022-11-29T00:44:19.927Z,63.07
2022-11-29T00:46:48.767Z,63.29
2022-11-29T00:49:16.114Z,63.34
2022-11-29T00:51:43.429Z,62.92
2022-11-29T00:54:10.602Z,63.01
2022-11-29T00:56:37.767Z,63.71
2022-11-29T00:59:05.052Z,62.76
2022-11-29T01:01:32.876Z,62.52
2022-11-29T01:04:02.595Z,63.21
2022-11-29T01:06:30.524Z,62.95
2022-11-29T01:08:58.728Z,62.64
2022-11-29T01:11:28.507Z,62.29
2022-11-29T01:13:59.463Z,62.69
2022-11-29T01:16:29.027Z,62.44
2022-11-29T01:18:56.871Z,62.19
2022-11-29T01:21:25.652Z,62.70
2022-11-29T01:23:54.841Z,62.70
2022-11-29T01:26:27.090Z,62.25
2022-11-29T01:28:56.231Z,62.74
2022-11-29T01:31:32.074Z,62.61
2022-11-29T01:34:04.936Z,62.39
2022-11-29T01:36:32.575Z,62.54
2022-11-29T01:39:01.215Z,63.44
2022-11-29T01:41:32.668Z,62.75
2022-11-29T01:44:12.159Z,62.88
2022-11-29T01:46:44.599Z,61.98
2022-11-29T01:49:20.914Z,62.82
2022-11-29T01:51:56.585Z,62.57
2022-11-29T02:03:08.185Z,62.22
2022-11-29T02:05:38.967Z,62.39
2022-11-29T02:11:22.167Z,61.96
2022-11-29T02:14:48.498Z,62.00
2022-11-29T02:17:47.154Z,61.84
2022-11-29T02:20:58.349Z,61.73
2022-11-29T02:23:43.994Z,62.31
2022-11-29T02:26:26.650Z,62.85
2022-11-29T02:29:22.133Z,62.03
2022-11-29T02:32:39.355Z,61.65
2022-11-29T02:35:34.362Z,62.21
2022-11-29T02:38:30.196Z,62.25
2022-11-29T02:41:22.824Z,61.98
2022-11-29T02:43:58.900Z,62.43
2022-11-29T02:47:02.495Z,62.91
2022-11-29T02:50:13.468Z,62.12
2022-11-29T02:52:59.451Z,62.10
2022-11-29T02:55:48.746Z,61.59
2022-11-29T02:58:49.446Z,62.46
2022-11-29T03:02:01.846Z,62.01
2022-11-29T03:04:40.921Z,61.36
2022-11-29T03:07:32.851Z,61.67
2022-11-29T03:10:38.063Z,61.11
2022-11-29T03:13:20.616Z,61.48
2022-11-29T03:16:08.850Z,61.95
2022-11-29T03:19:00.462Z,61.14
2022-11-29T03:21:56.719Z,61.72
2022-11-29T03:27:33.590Z,62.02
2022-11-29T03:30:07.387Z,62.32
2022-11-29T03:32:57.895Z,62.15
2022-11-29T03:36:41.963Z,62.63
2022-11-29T03:39:21.728Z,62.71
2022-11-29T03:42:22.918Z,62.70
2022-11-29T03:45:07.838Z,63.03
2022-11-29T03:47:57.898Z,62.49
2022-11-29T03:50:34.962Z,62.88
2022-11-29T03:53:34.379Z,63.26
2022-11-29T03:56:05.117Z,63.20
2022-11-29T03:59:12.488Z,63.27
2022-11-29T04:02:30.653Z,63.10
2022-11-29T04:06:00.032Z,63.81
2022-11-29T04:09:10.279Z,63.42
2022-11-29T04:12:16.571Z,63.31
2022-11-29T04:15:15.434Z,64.28
2022-11-29T04:18:05.014Z,64.45
2022-11-29T04:21:28.865Z,63.86
2022-11-29T04:24:13.879Z,64.63
2022-11-29T04:30:06.996Z,64.19
2022-11-29T04:33:25.200Z,63.89
2022-11-29T04:36:02.144Z,64.35
2022-11-29T04:39:04.245Z,63.63
2022-11-29T04:41:53.394Z,63.70
2022-11-29T04:44:38.830Z,64.45
2022-11-29T04:47:37.358Z,63.74
2022-11-29T04:50:41.669Z,64.39
2022-11-29T04:53:32.896Z,64.79
2022-11-29T04:56:18.911Z,64.37
2022-11-29T04:59:10.224Z,64.68
2022-11-29T05:02:10.487Z,64.25
2022-11-29T05:05:20.334Z,64.20
2022-11-29T05:08:12.276Z,64.70
2022-11-29T05:10:51.560Z,64.82
2022-11-29T05:16:49.580Z,65.35
2022-11-29T05:19:31.307Z,64.54
2022-11-29T05:22:39.280Z,63.60
2022-11-29T05:25:25.382Z,64.23
2022-11-29T05:28:25.079Z,64.76
2022-11-29T05:31:13.225Z,64.34
2022-11-29T05:34:18.135Z,65.30
2022-11-29T05:37:31.105Z,64.94
2022-11-29T05:40:11.219Z,64.72
2022-11-29T05:43:23.631Z,64.63
2022-11-29T05:46:13.991Z,65.24
2022-11-29T05:55:13.013Z,64.81
2022-11-29T08:31:45.608Z,63.00
2022-11-29T08:34:19.205Z,63.19
2022-11-29T11:02:53.038Z,61.36
2022-11-29T11:13:34.021Z,59.55
2022-11-29T11:21:31.916Z,58.18
2022-11-29T11:26:49.760Z,57.92
2022-11-29T11:29:23.683Z,58.42
2022-11-29T11:31:59.717Z,58.15
2022-11-29T11:34:35.471Z,57.75
2022-11-29T11:37:24.256Z,58.28
2022-11-29T11:39:58.866Z,58.93
2022-11-29T11:42:37.783Z,57.25
2022-11-29T11:45:11.674Z,58.61
2022-11-29T11:47:46.988Z,57.93
2022-11-29T11:50:28.019Z,57.08
2022-11-29T11:53:08.145Z,57.00
2022-11-29T11:55:43.467Z,56.63
2022-11-29T11:58:20.424Z,57.11
2022-11-29T12:01:07.930Z,56.54
2022-11-29T12:03:49.633Z,55.49
2022-11-29T12:06:37.471Z,56.73
2022-11-29T12:09:19.839Z,56.24
2022-11-29T12:12:11.058Z,56.96
2022-11-29T12:15:28.036Z,56.74
2022-11-29T12:18:15.777Z,57.47
2022-11-29T12:21:13.655Z,57.48
2022-11-29T12:23:52.942Z,56.54
2022-11-29T12:26:56.619Z,57.17
2022-11-29T12:29:23.138Z,57.04
2022-11-29T12:32:17.634Z,57.55
2022-11-29T12:35:19.370Z,57.22
2022-11-29T12:38:21.602Z,56.63
2022-11-29T12:41:14.351Z,57.28
2022-11-29T12:44:23.030Z,57.04
2022-11-29T12:50:18.278Z,56.51
2022-11-29T12:52:53.641Z,57.90
2022-11-29T12:55:37.742Z,58.25
2022-11-29T12:58:19.728Z,57.64
2022-11-29T13:01:16.043Z,58.20
2022-11-29T13:03:56.331Z,57.92
2022-11-29T13:06:55.920Z,58.59
2022-11-29T13:09:57.117Z,57.19
2022-11-29T13:12:53.369Z,57.54
2022-11-29T13:15:53.011Z,58.44
2022-11-29T13:21:57.381Z,58.83
2022-11-29T13:25:00.258Z,59.08
2022-11-29T13:27:38.908Z,58.05
2022-11-29T13:41:43.900Z,60.07
2022-11-29T13:44:47.789Z,60.37
2022-11-29T13:47:19.759Z,61.26
2022-11-29T13:50:04.094Z,61.45
2022-11-29T13:52:46.955Z,62.52
2022-11-29T13:55:18.628Z,61.79
2022-11-29T13:58:19.251Z,61.65
2022-11-29T14:00:46.526Z,61.04
2022-11-29T14:03:28.729Z,61.87
2022-11-29T14:06:15.708Z,62.35
2022-11-29T14:09:19.392Z,62.64
2022-11-29T14:12:18.367Z,62.20
2022-11-29T14:15:00.857Z,61.97
2022-11-29T14:17:55.985Z,61.84
2022-11-29T14:20:23.109Z,62.00
2022-11-29T14:23:05.721Z,62.37
2022-11-29T14:25:53.684Z,62.40
2022-11-29T14:28:23.913Z,62.25
2022-11-29T14:31:02.370Z,61.32
2022-11-29T14:34:07.436Z,62.55
2022-11-29T14:36:54.043Z,61.32
2022-11-29T14:39:34.707Z,61.95
2022-11-29T14:42:34.637Z,61.96
2022-11-29T14:45:04.861Z,62.10
2022-11-29T14:47:39.054Z,61.68
2022-11-29T14:50:10.540Z,61.80
2022-11-29T14:52:41.260Z,61.61
2022-11-29T14:55:32.487Z,61.85
2022-11-29T14:58:06.210Z,62.51
2022-11-29T15:00:38.699Z,62.02
2022-11-29T15:03:21.560Z,62.87
2022-11-29T15:05:58.026Z,62.80
2022-11-29T15:08:40.903Z,62.54
2022-11-29T15:11:10.610Z,61.86
2022-11-29T15:13:48.962Z,61.88
2022-11-29T15:16:52.938Z,61.99
2022-11-29T15:19:51.431Z,62.54
2022-11-29T15:22:22.881Z,62.63
2022-11-29T15:25:13.033Z,62.52
2022-11-29T15:28:06.029Z,62.32
2022-11-29T15:30:39.399Z,63.18
2022-11-29T15:33:23.209Z,63.35
2022-11-29T15:35:54.830Z,62.23
2022-11-29T15:38:24.389Z,62.28
2022-11-29T15:41:00.640Z,63.02
2022-11-29T15:49:28.466Z,63.36
2022-11-29T15:52:13.492Z,63.29
2022-11-29T15:54:52.088Z,63.64
2022-11-29T15:57:32.792Z,63.10
2022-11-29T16:00:05.083Z,63.25
2022-11-29T16:02:37.097Z,62.99
2022-11-29T16:05:16.806Z,63.03
2022-11-29T16:07:46.899Z,62.80
2022-11-29T16:10:22.753Z,62.78
2022-11-29T16:13:00.475Z,63.45
2022-11-29T16:15:36.889Z,63.41
2022-11-29T16:18:15.111Z,63.77
2022-11-29T16:20:42.598Z,62.75
2022-11-29T16:23:15.375Z,62.92
2022-11-29T16:26:23.189Z,63.81
2022-11-29T16:28:53.158Z,63.77
2022-11-29T16:31:23.105Z,62.99
2022-11-29T16:33:53.712Z,63.70
2022-11-29T16:36:29.370Z,63.50
2022-11-29T16:39:22.433Z,63.43
2022-11-29T16:42:30.063Z,63.59
2022-11-29T16:45:41.273Z,63.68
2022-11-29T16:48:23.650Z,63.51
2022-11-29T16:51:13.412Z,64.00
2022-11-29T16:53:42.816Z,63.37
2022-11-29T16:56:15.748Z,64.08
2022-11-29T16:59:25.893Z,63.65
2022-11-29T17:01:35.115Z,64.09
2022-11-29T17:04:02.843Z,64.27
2022-11-29T17:06:30.619Z,64.06
2022-11-29T17:08:59.925Z,63.86
2022-11-29T17:13:54.646Z,63.98
2022-11-29T17:16:24.670Z,64.03
2022-11-29T17:18:55.360Z,63.54
2022-11-29T17:21:26.167Z,63.45
2022-11-29T17:23:54.523Z,63.37
2022-11-29T17:26:24.312Z,64.94
2022-11-29T17:28:52.571Z,64.08
2022-11-29T17:31:23.212Z,63.89
2022-11-29T17:33:51.637Z,64.03
2022-11-29T17:36:21.461Z,64.16
2022-11-29T17:38:49.108Z,64.23
2022-11-29T17:41:25.078Z,64.06
2022-11-29T17:43:54.381Z,64.45
2022-11-29T17:46:28.026Z,63.54
2022-11-29T17:48:56.079Z,64.03
2022-11-29T17:54:13.276Z,65.00
2022-11-29T17:56:40.611Z,64.46
2022-11-29T17:59:07.830Z,64.49
2022-11-29T18:01:36.337Z,64.20
2022-11-29T18:04:05.873Z,64.13
2022-11-29T18:06:39.530Z,64.70
2022-11-29T18:09:09.169Z,64.40
2022-11-29T18:11:47.097Z,64.05
2022-11-29T18:14:23.011Z,65.08
2022-11-29T18:16:50.714Z,65.03
2022-11-29T18:19:21.798Z,64.49
2022-11-29T18:21:50.903Z,64.85
2022-11-29T18:24:19.065Z,64.76
2022-11-29T18:26:46.671Z,64.51
2022-11-29T18:29:13.978Z,64.71
2022-11-29T18:31:44.758Z,64.34
2022-11-29T18:34:14.115Z,63.91
2022-11-29T18:36:48.455Z,64.43
2022-11-29T18:39:19.986Z,64.92
2022-11-29T18:41:49.675Z,64.49
2022-11-29T18:44:21.486Z,64.38
2022-11-29T18:46:48.990Z,64.52
2022-11-29T18:49:18.507Z,64.30
2022-11-29T18:51:46.935Z,64.93
2022-11-29T18:54:16.264Z,64.74
2022-11-29T18:56:45.108Z,64.93
2022-11-29T18:59:17.712Z,64.88
2022-11-29T19:01:47.793Z,64.68
2022-11-29T19:04:19.999Z,64.39
2022-11-29T19:06:47.841Z,64.86
2022-11-29T19:09:21.478Z,64.60
2022-11-29T19:11:49.909Z,64.85
2022-11-29T19:14:18.795Z,64.42
2022-11-29T19:16:48.790Z,64.66
2022-11-29T19:19:18.642Z,64.63
2022-11-29T19:21:46.081Z,65.23
2022-11-29T19:24:18.157Z,64.45
2022-11-29T19:26:47.859Z,64.30
2022-11-29T19:29:16.381Z,64.86
2022-11-29T19:31:44.467Z,64.67
2022-11-29T19:34:12.083Z,64.42
2022-11-29T19:36:43.654Z,64.82
2022-11-29T19:39:14.471Z,64.82
2022-11-29T19:41:44.782Z,64.68
2022-11-29T19:44:12.982Z,64.87
2022-11-29T19:46:45.951Z,64.61
2022-11-29T19:49:13.373Z,65.36
2022-11-29T19:51:40.907Z,65.26
2022-11-29T19:54:10.814Z,65.62
2022-11-29T19:56:38.971Z,65.62
2022-11-29T19:59:08.121Z,65.58
2022-11-29T20:01:43.841Z,65.61
2022-11-29T20:04:13.869Z,65.52
2022-11-29T20:06:41.681Z,65.29
2022-11-29T20:09:09.245Z,65.73
2022-11-29T20:11:36.532Z,65.83
2022-11-29T20:14:06.073Z,65.20
2022-11-29T20:16:34.054Z,65.69
2022-11-29T20:19:01.887Z,65.36
2022-11-29T20:21:33.990Z,65.92
2022-11-29T20:24:07.872Z,65.08
2022-11-29T20:26:39.262Z,65.16
2022-11-29T20:29:08.565Z,65.55
2022-11-29T20:31:37.912Z,65.92
2022-11-29T20:34:06.870Z,65.44
2022-11-29T20:37:14.921Z,65.68
2022-11-29T20:39:53.189Z,66.08
2022-11-29T20:42:31.812Z,65.48
2022-11-29T20:45:06.611Z,65.93
2022-11-29T20:47:53.684Z,66.04
2022-11-29T20:50:26.021Z,66.05
2022-11-29T20:53:52.186Z,66.36
2022-11-29T20:56:19.537Z,66.08
2022-11-29T20:58:46.698Z,66.50
2022-11-29T21:01:13.964Z,65.97
2022-11-29T21:03:41.367Z,66.54
2022-11-29T21:06:08.699Z,66.70
2022-11-29T21:08:36.027Z,65.73
2022-11-29T21:11:10.561Z,66.03
2022-11-29T21:13:38.441Z,66.03
2022-11-29T21:16:06.344Z,65.74
2022-11-29T21:18:34.373Z,66.39
2022-11-29T21:21:33.632Z,66.53
2022-11-29T21:24:31.916Z,66.47
2022-11-29T21:26:59.327Z,66.06
2022-11-29T21:29:26.952Z,66.12
2022-11-29T21:31:55.383Z,65.77
2022-11-29T21:34:23.133Z,66.81
2022-11-29T21:36:58.364Z,66.87
2022-11-29T21:39:33.486Z,66.69
2022-11-29T21:42:00.880Z,66.52
2022-11-29T21:44:28.084Z,67.19
2022-11-29T21:46:55.397Z,66.69
2022-11-29T21:49:22.661Z,66.49
2022-11-29T21:51:50.032Z,65.91
2022-11-29T21:54:17.177Z,65.99
2022-11-29T21:56:44.345Z,66.00
2022-11-29T21:59:11.751Z,65.48
2022-11-29T22:01:39.063Z,65.98
2022-11-29T22:04:06.309Z,66.01
2022-11-29T22:06:34.003Z,65.78
2022-11-29T22:09:01.740Z,66.11
2022-11-29T22:11:34.721Z,65.90
2022-11-29T22:14:14.892Z,66.13
2022-11-29T22:16:43.644Z,66.09
2022-11-29T22:19:13.744Z,66.31
2022-11-29T22:21:47.695Z,66.27
2022-11-29T22:24:17.783Z,66.70
2022-11-29T22:26:46.074Z,66.45
2022-11-29T22:29:14.876Z,66.52
2022-11-29T22:31:44.381Z,66.59
2022-11-29T22:34:12.205Z,67.09
2022-11-29T22:36:40.189Z,66.50
2022-11-29T22:39:08.992Z,66.69
2022-11-29T22:41:37.868Z,66.62
2022-11-29T22:44:05.830Z,66.25
2022-11-29T22:46:35.535Z,65.84
2022-11-29T22:49:03.301Z,66.21
2022-11-29T22:51:36.261Z,66.84
2022-11-29T22:54:11.943Z,66.56
2022-11-29T22:56:41.809Z,66.99
2022-11-29T22:59:10.157Z,66.65
2022-11-29T23:01:40.885Z,66.74
2022-11-29T23:04:11.086Z,66.44
2022-11-29T23:06:44.591Z,66.23
2022-11-29T23:09:16.737Z,66.30
2022-11-29T23:11:46.135Z,66.85
2022-11-29T23:14:13.802Z,66.71
2022-11-29T23:16:41.278Z,66.65
2022-11-29T23:19:09.049Z,66.95
2022-11-29T23:21:40.084Z,67.11
2022-11-29T23:24:08.449Z,67.15
2022-11-29T23:26:40.571Z,67.08
2022-11-29T23:29:12.625Z,66.81
2022-11-29T23:31:41.213Z,66.64
2022-11-29T23:34:09.210Z,66.51
2022-11-29T23:36:36.960Z,66.63
2022-11-29T23:39:06.909Z,66.72
2022-11-29T23:41:38.767Z,66.63
2022-11-29T23:44:06.609Z,66.63
2022-11-29T23:46:35.514Z,67.56
2022-11-29T23:49:02.974Z,67.34
2022-11-29T23:51:31.229Z,67.50
2022-11-29T23:53:59.047Z,67.20
2022-11-29T23:56:26.620Z,66.83
2022-11-29T23:58:53.879Z,67.01
